Time;durP1;ratioP1;P1;durP2;ratioP2;P2;SDS_P1;SDS_P2;PMS_P1;PMS_P2;Temp;Humidity;BMP_temperature;BMP_pressure;BME280_temperature;BME280_humidity;BME280_pressure;Samples;Min_cycle;Max_cycle;Signal;HPM_P1;HPM_P2
2023/04/18 00:00:19;;;;;;;19.90;11.98;;;7.60;99.90;;;6.91;100.00;97652.41;5047481;28;20036;-48
2023/04/18 00:02:44;;;;;;;18.95;12.13;;;7.60;99.90;;;6.95;100.00;97660.19;5047678;28;20028;-48
2023/04/18 00:05:11;;;;;;;18.75;12.38;;;7.70;99.90;;;6.98;100.00;97661.88;5045970;28;20537;-46
2023/04/18 00:07:37;;;;;;;16.10;11.90;;;7.60;99.90;;;7.00;100.00;97663.59;5053628;28;20044;-47
2023/04/18 00:10:05;;;;;;;16.08;11.57;;;7.70;99.90;;;7.00;100.00;97654.84;5048084;28;20029;-45
2023/04/18 00:12:33;;;;;;;15.48;11.93;;;7.60;99.90;;;6.90;100.00;97640.19;5046828;28;20123;-49
2023/04/18 00:14:59;;;;;;;15.57;10.98;;;7.70;99.90;;;6.91;100.00;97644.53;5043894;28;20283;-45
2023/04/18 00:17:27;;;;;;;15.75;12.20;;;7.60;99.90;;;7.03;100.00;97654.81;5041710;28;20036;-49
2023/04/18 00:19:55;;;;;;;18.83;12.15;;;7.70;99.90;;;7.04;100.00;97652.16;5044031;28;20480;-46
2023/04/18 00:22:21;;;;;;;19.17;12.13;;;7.60;99.90;;;7.06;100.00;97649.50;5045115;28;20474;-45
2023/04/18 00:24:50;;;;;;;16.42;12.05;;;7.70;99.90;;;7.07;100.00;97643.38;5042180;28;20032;-47
2023/04/18 00:27:20;;;;;;;18.02;11.60;;;7.70;99.90;;;7.05;100.00;97640.78;5045556;28;20036;-46
2023/04/18 00:29:46;;;;;;;16.80;11.20;;;7.70;99.90;;;7.05;100.00;97635.53;5048480;28;20078;-45
2023/04/18 00:32:13;;;;;;;15.60;10.65;;;7.70;99.90;;;7.04;100.00;97631.16;5041497;28;20711;-47
2023/04/18 00:34:39;;;;;;;14.75;10.73;;;7.70;99.90;;;7.04;100.00;97636.41;5043977;28;20036;-45
2023/04/18 00:37:06;;;;;;;15.13;10.73;;;7.70;99.90;;;7.05;100.00;97627.66;5045760;28;20025;-46
2023/04/18 00:39:34;;;;;;;16.42;11.32;;;7.70;99.90;;;7.05;100.00;97632.91;5043723;28;20031;-47
2023/04/18 00:42:04;;;;;;;12.95;9.45;;;7.70;99.90;;;7.04;100.00;97625.06;5041380;28;21547;-48
2023/04/18 00:44:30;;;;;;;15.95;11.25;;;7.70;99.90;;;7.05;100.00;97638.16;5042419;28;20519;-45
2023/04/18 00:46:56;;;;;;;16.65;11.13;;;7.70;99.90;;;7.10;100.00;97635.44;5045915;28;21469;-45
2023/04/18 00:49:23;;;;;;;15.90;11.13;;;7.70;99.90;;;7.07;100.00;97625.88;5045765;28;20048;-45
2023/04/18 00:51:49;;;;;;;15.48;9.75;;;7.70;99.90;;;7.06;100.00;97625.91;5042414;28;20028;-46
2023/04/18 00:54:17;;;;;;;15.02;10.32;;;7.70;99.90;;;7.07;100.00;97623.25;5022870;28;20492;-48
2023/04/18 00:56:44;;;;;;;14.68;10.90;;;7.70;99.90;;;7.01;100.00;97610.25;5043462;28;20040;-46
2023/04/18 00:59:10;;;;;;;15.23;10.63;;;7.70;99.90;;;7.04;100.00;97622.44;5042603;28;20385;-48
2023/04/18 01:01:39;;;;;;;13.55;9.88;;;7.70;99.90;;;7.03;100.00;97626.84;5038715;28;20538;-46
2023/04/18 01:04:06;;;;;;;17.50;10.93;;;7.70;99.90;;;7.00;100.00;97619.03;5039404;28;20044;-50
2023/04/18 01:06:32;;;;;;;18.23;11.70;;;7.70;99.90;;;7.04;100.00;97625.06;5045961;28;20028;-49
2023/04/18 01:08:58;;;;;;;14.27;11.13;;;7.70;99.90;;;6.96;100.00;97606.84;5026265;28;20036;-47
2023/04/18 01:11:24;;;;;;;15.73;10.23;;;7.60;99.90;;;7.00;100.00;97618.13;5041121;28;20036;-50
2023/04/18 01:14:00;;;;;;;18.60;12.40;;;7.60;99.90;;;6.95;100.00;97610.38;5043163;28;20036;-49
2023/04/18 01:16:27;;;;;;;15.98;11.15;;;7.60;99.90;;;6.94;100.00;97603.38;5041731;28;20161;-49
2023/04/18 01:18:53;;;;;;;14.98;10.82;;;7.60;99.90;;;6.94;100.00;97606.00;5043915;28;20032;-50
2023/04/18 01:21:20;;;;;;;17.08;11.95;;;7.60;99.90;;;6.90;100.00;97600.88;5047215;28;20068;-50
2023/04/18 01:23:47;;;;;;;20.13;12.82;;;7.60;99.90;;;6.87;100.00;97589.56;5040008;28;20029;-49
2023/04/18 01:26:13;;;;;;;20.17;13.45;;;7.50;99.90;;;6.83;100.00;97595.72;5038187;28;20331;-49
2023/04/18 01:28:38;;;;;;;14.43;10.85;;;7.50;99.90;;;6.84;100.00;97592.22;5040105;28;20047;-46
2023/04/18 01:31:04;;;;;;;20.17;12.45;;;7.50;99.90;;;6.82;100.00;97594.00;5040660;28;20043;-47
2023/04/18 01:33:30;;;;;;;19.92;13.18;;;7.50;99.90;;;6.80;100.00;97592.31;5042847;28;20156;-48
2023/04/18 01:35:56;;;;;;;18.33;13.00;;;7.50;99.90;;;6.75;100.00;97581.03;5040580;28;20066;-46
2023/04/18 01:38:21;;;;;;;16.98;11.63;;;7.40;99.90;;;6.72;100.00;97584.59;5038982;28;20336;-49
2023/04/18 01:40:48;;;;;;;17.23;11.82;;;7.40;99.90;;;6.69;100.00;97585.53;5041706;28;20040;-49
2023/04/18 01:43:14;;;;;;;17.98;13.18;;;7.40;99.90;;;6.69;100.00;97582.91;5043294;28;20044;-47
2023/04/18 01:45:39;;;;;;;16.02;11.70;;;7.40;99.90;;;6.71;100.00;97582.84;5037122;28;20396;-48
2023/04/18 01:48:05;;;;;;;15.88;10.88;;;7.40;99.90;;;6.69;100.00;97575.03;5045906;28;20102;-50
2023/04/18 01:50:31;;;;;;;20.63;12.82;;;7.40;99.90;;;6.72;100.00;97574.09;5044557;28;20123;-46
2023/04/18 01:52:57;;;;;;;17.05;11.35;;;7.40;99.90;;;6.76;100.00;97581.00;5039905;28;20559;-46
2023/04/18 01:55:22;;;;;;;17.67;10.93;;;7.40;99.90;;;6.77;100.00;97580.13;5038612;28;20033;-46
2023/04/18 01:57:49;;;;;;;15.27;10.82;;;7.40;99.90;;;6.77;100.00;97579.28;5040682;28;20431;-49
2023/04/18 02:00:15;;;;;;;18.85;12.15;;;7.40;99.90;;;6.76;100.00;97581.00;5042426;28;20048;-49
2023/04/18 02:02:41;;;;;;;17.92;12.02;;;7.40;99.90;;;6.79;100.00;97577.47;5042342;28;20066;-49
2023/04/18 02:05:08;;;;;;;15.48;11.68;;;7.40;99.90;;;6.79;100.00;97574.88;5043119;28;20070;-49
2023/04/18 02:07:33;;;;;;;17.05;10.75;;;7.40;99.90;;;6.76;100.00;97565.28;5037527;28;20058;-49
2023/04/18 02:09:59;;;;;;;21.13;12.25;;;7.40;99.90;;;6.81;100.00;97573.06;5043704;28;20028;-47
2023/04/18 02:12:25;;;;;;;15.27;10.48;;;7.40;99.90;;;6.77;100.00;97574.03;5042431;28;20040;-50
2023/04/18 02:14:52;;;;;;;18.13;11.10;;;7.40;99.90;;;6.72;100.00;97571.47;5043386;28;20484;-50
2023/04/18 02:17:20;;;;;;;18.67;11.55;;;7.40;99.90;;;6.69;100.00;97579.41;5037860;28;20048;-48
2023/04/18 02:19:46;;;;;;;15.80;11.02;;;7.40;99.90;;;6.68;100.00;97572.44;5047801;28;20044;-47
2023/04/18 02:22:12;;;;;;;18.42;11.93;;;7.40;99.90;;;6.69;100.00;97580.28;5045361;28;20031;-49
2023/04/18 02:24:38;;;;;;;14.00;10.52;;;7.40;99.90;;;6.69;100.00;97577.66;5039358;28;20032;-50
2023/04/18 02:27:04;;;;;;;15.63;10.82;;;7.30;99.90;;;6.68;100.00;97575.91;5042431;28;20082;-50
2023/04/18 02:29:29;;;;;;;14.73;10.98;;;7.30;99.90;;;6.67;100.00;97573.31;5044120;28;20032;-50
2023/04/18 02:31:57;;;;;;;19.70;11.52;;;7.30;99.90;;;6.71;100.00;97579.38;5041186;28;20393;-46
2023/04/18 02:34:22;;;;;;;15.02;10.95;;;7.30;99.90;;;6.68;100.00;97577.69;5043181;28;20043;-50
2023/04/18 02:36:48;;;;;;;16.88;12.07;;;7.30;99.90;;;6.63;100.00;97566.41;5047467;28;20020;-50
2023/04/18 02:39:14;;;;;;;16.08;11.73;;;7.30;99.90;;;6.45;100.00;97552.75;5044082;28;20496;-49
2023/04/18 02:41:39;;;;;;;17.00;11.88;;;7.30;99.90;;;6.55;100.00;97582.28;5036776;28;20043;-49
2023/04/18 02:44:08;;;;;;;16.65;11.18;;;7.30;99.90;;;6.50;100.00;97569.25;5043582;28;20047;-49
2023/04/18 02:46:33;;;;;;;19.08;11.50;;;7.20;99.90;;;6.49;100.00;97571.91;5040903;28;20041;-49
2023/04/18 02:48:59;;;;;;;18.63;12.00;;;7.20;99.90;;;6.45;100.00;97567.63;5041369;28;20063;-45
2023/04/18 02:51:25;;;;;;;14.73;10.35;;;7.20;99.90;;;6.46;100.00;97569.31;5039683;28;20037;-46
2023/04/18 02:53:53;;;;;;;15.57;11.10;;;7.20;99.90;;;6.46;100.00;97570.22;5039896;28;20475;-49
2023/04/18 02:56:20;;;;;;;18.05;11.30;;;7.10;99.90;;;6.49;100.00;97574.53;5040977;28;20210;-49
2023/04/18 02:58:47;;;;;;;15.05;10.93;;;7.10;99.90;;;6.37;100.00;97561.63;5061873;22;20413;-38
2023/04/18 03:01:12;;;;;;;17.13;11.65;;;7.10;99.90;;;6.45;100.00;97568.47;5046067;28;20052;-38
2023/04/18 03:03:38;;;;;;;16.55;10.32;;;7.10;99.90;;;6.28;100.00;97546.94;5040293;28;20027;-38
2023/04/18 03:06:04;;;;;;;14.55;10.48;;;7.10;99.90;;;6.43;100.00;97566.78;5046153;28;20064;-37
2023/04/18 03:08:30;;;;;;;15.93;11.18;;;7.10;99.90;;;6.40;100.00;97566.81;5031953;28;20033;-38
2023/04/18 03:10:55;;;;;;;14.77;10.40;;;7.10;99.90;;;6.32;100.00;97561.72;5026280;28;20523;-38
2023/04/18 03:13:21;;;;;;;14.07;10.40;;;7.10;99.90;;;6.41;100.00;97565.94;5007618;28;20483;-37
2023/04/18 03:15:47;;;;;;;15.77;10.90;;;7.10;99.90;;;6.46;100.00;97571.94;5029707;28;20509;-38
2023/04/18 03:18:13;;;;;;;18.58;11.32;;;7.10;99.90;;;6.42;100.00;97570.28;5026820;28;20388;-37
2023/04/18 03:20:39;;;;;;;15.63;10.00;;;7.10;99.90;;;6.42;100.00;97568.50;5030270;28;20033;-37
2023/04/18 03:23:05;;;;;;;18.02;11.40;;;7.10;99.90;;;6.31;100.00;97554.75;5025848;28;20037;-38
2023/04/18 03:25:31;;;;;;;20.45;11.48;;;7.10;99.90;;;6.38;100.00;97571.22;5028680;28;20587;-37
2023/04/18 03:27:57;;;;;;;16.55;11.68;;;7.10;99.90;;;6.37;100.00;97569.50;5029855;28;21125;-38
2023/04/18 03:30:22;;;;;;;16.00;10.32;;;7.00;99.90;;;6.32;100.00;97566.97;5028070;28;20119;-38
2023/04/18 03:32:48;;;;;;;14.23;10.38;;;7.00;99.90;;;6.32;100.00;97564.34;5024610;28;20040;-38
2023/04/18 03:35:14;;;;;;;15.68;10.75;;;7.00;99.90;;;6.27;100.00;97563.56;5019562;28;20462;-37
2023/04/18 03:37:40;;;;;;;15.68;11.38;;;7.00;99.90;;;6.36;100.00;97567.78;5032325;28;20037;-37
2023/04/18 03:40:06;;;;;;;16.20;11.48;;;7.00;99.90;;;6.31;100.00;97570.47;5037797;28;20068;-37
2023/04/18 03:42:32;;;;;;;16.95;10.55;;;7.00;99.90;;;6.26;100.00;97562.72;5037669;28;20017;-38
2023/04/18 03:44:58;;;;;;;17.33;11.27;;;7.00;99.90;;;6.25;100.00;97568.81;5026208;28;20381;-38
2023/04/18 03:47:24;;;;;;;17.13;10.80;;;7.00;99.90;;;6.24;100.00;97563.59;5034169;28;20095;-38
2023/04/18 03:49:50;;;;;;;17.83;11.38;;;6.90;99.90;;;6.25;100.00;97567.97;5034186;28;20116;-38
2023/04/18 03:52:15;;;;;;;15.55;11.13;;;6.90;99.90;;;6.23;100.00;97565.38;5029989;28;20033;-38
2023/04/18 03:54:41;;;;;;;15.38;10.35;;;6.90;99.90;;;6.18;100.00;97567.19;5026945;28;20324;-38
2023/04/18 03:57:07;;;;;;;14.07;9.95;;;6.90;99.90;;;6.20;100.00;97572.41;5030206;28;20036;-38
2023/04/18 03:59:32;;;;;;;17.27;12.18;;;6.90;99.90;;;6.17;100.00;97568.06;5021810;28;20485;-38
2023/04/18 04:01:58;;;;;;;16.30;11.45;;;6.90;99.90;;;6.15;100.00;97567.25;5017026;28;20071;-38
2023/04/18 04:04:24;;;;;;;14.93;10.85;;;6.90;99.90;;;6.17;100.00;97570.69;5020136;28;20045;-38
2023/04/18 04:06:50;;;;;;;17.23;11.23;;;6.80;99.90;;;6.15;100.00;97584.72;5020140;28;20048;-38
2023/04/18 04:09:16;;;;;;;19.42;12.63;;;6.80;99.90;;;6.09;100.00;97580.44;5025506;28;20657;-38
2023/04/18 04:11:42;;;;;;;19.27;12.38;;;6.80;99.90;;;6.10;100.00;97587.41;5027711;28;20044;-37
2023/04/18 04:14:07;;;;;;;16.95;11.20;;;6.80;99.90;;;6.08;100.00;97592.69;5024607;28;20037;-37
2023/04/18 04:16:33;;;;;;;19.33;12.13;;;6.80;99.90;;;6.02;100.00;97590.16;5020753;28;20037;-38
2023/04/18 04:18:59;;;;;;;15.95;11.50;;;6.70;99.90;;;5.98;100.00;97583.22;5026881;28;20055;-38
2023/04/18 04:21:25;;;;;;;17.80;11.52;;;6.70;99.90;;;6.00;100.00;97594.53;5025609;28;20041;-38
2023/04/18 04:23:51;;;;;;;14.93;11.15;;;6.70;99.90;;;6.00;100.00;97577.97;5019549;28;20029;-38
2023/04/18 04:26:17;;;;;;;17.90;11.50;;;6.70;99.90;;;5.91;100.00;97571.09;5027947;28;20523;-38
2023/04/18 04:28:45;;;;;;;17.70;11.57;;;6.70;99.90;;;5.97;100.00;97578.03;5028901;28;20032;-38
2023/04/18 04:31:10;;;;;;;13.70;10.48;;;6.70;99.90;;;6.01;100.00;97584.94;5003599;28;20508;-38
2023/04/18 04:33:37;;;;;;;18.20;12.15;;;6.70;99.90;;;6.02;100.00;97586.66;5026350;28;20558;-38
2023/04/18 04:36:05;;;;;;;15.13;10.82;;;6.70;99.90;;;6.04;100.00;97580.50;5021043;28;20029;-37
2023/04/18 04:38:31;;;;;;;16.92;11.15;;;6.70;99.90;;;6.11;100.00;97578.66;5018138;28;20116;-37
2023/04/18 04:40:57;;;;;;;21.80;12.85;;;6.80;99.90;;;6.08;100.00;97581.31;5028754;28;20310;-37
2023/04/18 04:43:24;;;;;;;19.83;12.20;;;6.80;99.90;;;6.05;100.00;97584.88;5029267;28;20031;-38
2023/04/18 04:45:51;;;;;;;16.75;11.65;;;6.80;99.90;;;6.07;100.00;97592.69;5011336;28;20742;-37
2023/04/18 04:48:18;;;;;;;19.67;12.40;;;6.80;99.90;;;6.06;100.00;97590.97;5006769;28;20555;-37
2023/04/18 04:50:55;;;;;;;17.73;12.05;;;6.80;99.90;;;6.04;100.00;97590.13;5027191;28;20036;-37
2023/04/18 04:53:22;;;;;;;17.02;11.63;;;6.70;99.90;;;5.99;100.00;97586.72;5027068;28;20044;-38
2023/04/18 04:55:48;;;;;;;15.25;11.13;;;6.70;99.90;;;6.04;100.00;97584.88;5022058;28;20041;-37
2023/04/18 04:58:13;;;;;;;15.48;11.80;;;6.80;99.90;;;6.15;100.00;97584.72;5020357;28;20110;-37
2023/04/18 05:00:39;;;;;;;16.38;11.32;;;6.80;99.90;;;6.18;100.00;97590.75;5020694;28;20045;-37
2023/04/18 05:03:06;;;;;;;17.95;11.50;;;6.80;99.90;;;6.18;100.00;97596.00;5018164;28;20543;-38
2023/04/18 05:05:32;;;;;;;19.15;11.68;;;6.90;99.90;;;6.19;100.00;97603.00;5024615;28;20033;-38
2023/04/18 05:07:58;;;;;;;16.65;11.75;;;6.90;99.90;;;6.21;100.00;97593.34;4998377;23;20095;-38
2023/04/18 05:10:24;;;;;;;17.27;12.02;;;6.90;99.90;;;6.19;100.00;97587.28;4972467;28;20478;-38
2023/04/18 05:12:50;;;;;;;18.58;11.80;;;6.90;99.90;;;6.18;100.00;97590.75;4982127;28;20041;-38
2023/04/18 05:15:16;;;;;;;17.80;12.82;;;6.90;99.90;;;6.19;100.00;97595.13;4986761;28;20034;-38
2023/04/18 05:17:42;;;;;;;17.15;11.82;;;6.90;99.90;;;6.19;100.00;97586.38;4991309;28;20413;-38
2023/04/18 05:20:09;;;;;;;20.95;12.25;;;6.90;99.90;;;6.16;100.00;97584.69;4991896;28;20030;-38
2023/04/18 05:22:35;;;;;;;18.00;11.80;;;6.90;99.90;;;6.30;100.00;97598.44;4991954;28;20048;-38
2023/04/18 05:25:01;;;;;;;18.50;12.40;;;7.00;99.90;;;6.37;100.00;97595.69;4989094;28;20034;-38
2023/04/18 05:27:27;;;;;;;20.65;11.80;;;7.00;99.90;;;6.39;100.00;97601.75;4990003;28;20251;-38
2023/04/18 05:29:52;;;;;;;19.67;13.05;;;7.00;99.90;;;6.39;100.00;97604.38;4987867;28;20401;-38
2023/04/18 05:32:18;;;;;;;19.65;13.15;;;7.10;99.90;;;6.34;100.00;97598.38;4989420;28;20157;-38
2023/04/18 05:34:44;;;;;;;18.98;12.68;;;7.10;99.90;;;6.35;100.00;97606.19;4987883;28;20030;-38
2023/04/18 05:37:10;;;;;;;19.15;11.93;;;7.10;99.90;;;6.37;100.00;97598.31;4997334;28;20030;-38
2023/04/18 05:39:36;;;;;;;18.48;11.20;;;7.10;99.90;;;6.47;100.00;97605.97;4996638;28;20314;-38
2023/04/18 05:42:02;;;;;;;19.95;11.95;;;7.10;99.90;;;6.53;100.00;97617.25;4995601;28;20062;-38
2023/04/18 05:44:28;;;;;;;17.40;11.48;;;7.20;99.90;;;6.56;100.00;97606.72;4991999;28;20083;-37
2023/04/18 05:46:54;;;;;;;16.23;11.77;;;7.20;99.90;;;6.61;100.00;97610.13;4999110;28;20026;-38
2023/04/18 05:49:20;;;;;;;18.05;11.80;;;7.30;99.90;;;6.69;100.00;97610.84;4993438;28;20044;-37
2023/04/18 05:51:48;;;;;;;17.42;11.98;;;7.30;99.90;;;6.77;100.00;97614.22;4998460;28;20306;-37
2023/04/18 05:54:15;;;;;;;15.95;11.38;;;7.40;99.90;;;6.73;100.00;97609.03;4996815;28;20032;-38
2023/04/18 05:56:41;;;;;;;20.02;12.02;;;7.40;99.90;;;6.64;100.00;97610.94;4998562;28;20025;-38
2023/04/18 05:59:07;;;;;;;17.15;12.07;;;7.40;99.90;;;6.67;100.00;97613.50;4999519;28;20414;-37
2023/04/18 06:01:33;;;;;;;19.88;11.93;;;7.40;99.90;;;6.72;100.00;97616.03;4995157;28;20025;-37
2023/04/18 06:03:59;;;;;;;13.27;10.18;;;7.40;99.90;;;6.51;100.00;97575.34;4998646;28;20034;-38
2023/04/18 06:06:25;;;;;;;15.98;11.40;;;7.40;99.90;;;6.89;100.00;97602.59;4997006;28;20064;-38
2023/04/18 06:08:50;;;;;;;16.63;11.68;;;7.50;99.90;;;6.97;100.00;97612.97;4998345;28;20493;-37
2023/04/18 06:11:18;;;;;;;18.63;13.00;;;7.60;99.90;;;6.98;100.00;97617.31;4998228;28;20069;-37
2023/04/18 06:13:44;;;;;;;22.02;12.43;;;7.70;99.90;;;6.78;100.00;97583.59;4992740;28;20297;-38
2023/04/18 06:16:10;;;;;;;16.88;11.88;;;7.70;99.90;;;6.99;100.00;97622.53;4995670;28;20562;-37
2023/04/18 06:18:36;;;;;;;16.70;12.05;;;7.60;99.90;;;7.03;100.00;97631.19;4997134;28;20681;-38
2023/04/18 06:21:02;;;;;;;18.90;12.60;;;7.70;99.90;;;7.05;100.00;97626.78;4999508;28;20030;-38
2023/04/18 06:23:28;;;;;;;17.10;12.13;;;7.70;99.90;;;7.10;100.00;97632.81;4994211;28;20065;-38
2023/04/18 06:25:56;;;;;;;16.60;12.23;;;7.70;99.90;;;7.10;100.00;97634.56;4991431;28;20101;-38
2023/04/18 06:28:23;;;;;;;15.18;11.60;;;7.80;99.90;;;7.07;100.00;97632.88;4995835;28;20140;-38
2023/04/18 06:30:48;;;;;;;20.23;11.98;;;7.70;99.90;;;7.18;100.00;97633.53;4996138;28;20026;-37
2023/04/18 06:33:14;;;;;;;16.90;11.90;;;7.80;99.90;;;7.23;100.00;97630.81;4997077;28;20037;-38
2023/04/18 06:35:40;;;;;;;15.77;10.93;;;7.90;99.90;;;7.31;100.00;97628.91;4996417;28;20302;-38
2023/04/18 06:38:06;;;;;;;19.60;11.95;;;8.00;99.90;;;7.37;100.00;97639.25;5000040;28;20061;-38
2023/04/18 06:40:32;;;;;;;15.32;11.07;;;8.00;99.90;;;7.54;100.00;97638.06;4992207;28;20112;-38
2023/04/18 06:42:58;;;;;;;21.08;12.15;;;8.10;99.90;;;7.46;100.00;97640.84;4994455;28;20486;-38
2023/04/18 06:45:23;;;;;;;19.55;11.70;;;8.20;99.90;;;7.45;100.00;97626.88;4994587;28;20414;-38
2023/04/18 06:47:50;;;;;;;19.58;12.43;;;8.20;99.90;;;7.56;100.00;97631.03;4999566;28;20041;-37
2023/04/18 06:50:15;;;;;;;20.58;12.27;;;8.20;99.90;;;7.64;100.00;97632.59;4999036;28;20064;-37
2023/04/18 06:52:44;;;;;;;18.90;11.93;;;8.30;99.90;;;7.77;100.00;97633.19;4998181;28;20482;-38
2023/04/18 06:55:11;;;;;;;16.92;11.77;;;8.40;99.90;;;7.78;100.00;97637.53;4998625;28;20030;-38
2023/04/18 06:57:39;;;;;;;15.55;10.85;;;8.50;99.90;;;7.76;100.00;97630.59;4996444;28;20041;-38
2023/04/18 07:00:06;;;;;;;14.77;11.02;;;8.50;99.90;;;7.76;100.00;97635.84;4998885;28;20042;-38
2023/04/18 07:02:31;;;;;;;17.75;10.88;;;8.50;99.90;;;7.73;100.00;97631.50;4994914;28;20108;-38
2023/04/18 07:04:57;;;;;;;17.20;11.70;;;8.50;99.90;;;7.81;100.00;97640.09;4993793;28;20033;-37
2023/04/18 07:07:22;;;;;;;18.45;11.50;;;8.50;99.90;;;7.82;100.00;97639.22;4996667;28;20033;-38
2023/04/18 07:09:49;;;;;;;19.73;11.65;;;8.50;99.90;;;7.74;100.00;97640.28;4997371;28;20414;-38
2023/04/18 07:12:15;;;;;;;20.02;11.85;;;8.50;99.90;;;7.76;100.00;97639.31;4995170;28;20153;-38
2023/04/18 07:14:41;;;;;;;17.25;11.27;;;8.50;99.90;;;7.80;100.00;97640.13;4993762;28;20025;-38
2023/04/18 07:17:06;;;;;;;15.75;10.57;;;8.50;99.90;;;7.92;100.00;97639.84;4999302;28;20049;-37
2023/04/18 07:19:32;;;;;;;16.60;11.10;;;8.50;99.90;;;7.85;100.00;97648.78;4994696;28;20076;-38
2023/04/18 07:21:59;;;;;;;16.23;11.27;;;8.60;99.90;;;7.83;100.00;97638.28;4997781;28;20061;-37
2023/04/18 07:24:25;;;;;;;15.77;11.32;;;8.60;99.90;;;7.89;100.00;97644.31;4993896;28;20478;-38
2023/04/18 07:26:51;;;;;;;17.73;11.15;;;8.60;99.90;;;7.87;100.00;97654.00;4995385;28;20037;-37
2023/04/18 07:29:20;;;;;;;18.55;10.90;;;8.60;99.90;;;7.89;100.00;97645.16;4996580;28;20033;-38
2023/04/18 07:31:46;;;;;;;17.30;11.23;;;8.60;99.90;;;7.95;100.00;97644.16;4994695;28;20057;-37
2023/04/18 07:34:15;;;;;;;17.20;10.98;;;8.60;99.90;;;7.97;100.00;97652.91;4996330;28;20553;-38
2023/04/18 07:36:41;;;;;;;15.48;10.75;;;8.60;99.90;;;7.98;100.00;97651.97;4995511;28;20042;-38
2023/04/18 07:39:07;;;;;;;17.95;11.88;;;8.60;99.90;;;7.85;100.00;97633.00;4996669;28;20034;-38
2023/04/18 07:41:33;;;;;;;14.75;10.57;;;8.60;99.90;;;7.95;100.00;97646.78;4994803;28;20030;-37
2023/04/18 07:44:00;;;;;;;17.08;10.30;;;8.70;99.90;;;8.17;100.00;97657.69;4990782;28;20030;-38
2023/04/18 07:46:26;;;;;;;17.08;11.48;;;8.80;99.90;;;8.27;100.00;97655.69;4998531;28;20026;-38
2023/04/18 07:48:52;;;;;;;15.63;10.68;;;8.90;99.90;;;8.34;100.00;97644.13;4995582;28;20048;-37
2023/04/18 07:51:18;;;;;;;17.30;12.20;;;9.00;99.90;;;8.46;100.00;97654.41;4995004;28;20109;-37
2023/04/18 07:53:43;;;;;;;15.50;11.40;;;9.10;99.90;;;8.49;100.00;97662.22;4993590;28;20497;-38
2023/04/18 07:56:11;;;;;;;18.15;12.80;;;9.20;99.90;;;8.44;100.00;97661.47;4998543;28;20038;-38
2023/04/18 07:58:37;;;;;;;21.08;11.77;;;9.20;99.90;;;8.52;100.00;97653.38;4998230;28;20049;-38
2023/04/18 08:01:03;;;;;;;19.48;11.43;;;9.20;99.90;;;8.54;100.00;97655.09;4997885;28;20692;-37
2023/04/18 08:03:28;;;;;;;17.52;11.13;;;9.30;99.90;;;8.71;100.00;97654.66;4995795;28;20497;-38
2023/04/18 08:05:54;;;;;;;21.90;11.77;;;9.40;99.90;;;8.52;100.00;97633.19;4998474;28;20052;-38
2023/04/18 08:08:20;;;;;;;16.83;12.13;;;9.50;99.90;;;8.71;100.00;97659.06;4999465;28;20439;-37
2023/04/18 08:10:46;;;;;;;19.52;12.80;;;9.50;99.90;;;8.74;100.00;97658.94;4998330;28;20044;-38
2023/04/18 08:13:12;;;;;;;22.98;11.80;;;9.60;99.90;;;8.91;100.00;97662.00;4993554;28;20054;-37
2023/04/18 08:15:39;;;;;;;18.25;12.30;;;9.70;99.90;;;9.17;100.00;97660.47;4995846;28;20045;-37
2023/04/18 08:18:05;;;;;;;18.23;11.43;;;9.90;99.90;;;9.51;100.00;97659.50;4997414;28;20033;-37
2023/04/18 08:20:30;;;;;;;17.42;11.70;;;10.20;99.90;;;9.74;100.00;97664.13;4991252;28;20034;-37
2023/04/18 08:22:56;;;;;;;16.48;10.80;;;10.40;99.90;;;10.01;100.00;97667.69;4991086;28;20030;-37
2023/04/18 08:25:22;;;;;;;18.67;12.00;;;10.70;99.90;;;10.11;100.00;97669.16;4989584;28;20489;-38
2023/04/18 08:27:47;;;;;;;15.43;11.18;;;10.90;99.90;;;10.07;100.00;97664.91;4988623;28;20041;-37
2023/04/18 08:30:14;;;;;;;15.50;11.02;;;10.90;99.90;;;10.11;100.00;97670.94;4998754;28;20065;-38
2023/04/18 08:32:39;;;;;;;16.58;11.20;;;10.80;99.90;;;10.08;100.00;97671.88;4996604;28;20060;-37
2023/04/18 08:35:06;;;;;;;15.48;10.98;;;10.80;99.90;;;9.98;100.00;97662.53;4999560;28;20034;-37
2023/04/18 08:37:34;;;;;;;16.42;11.75;;;10.70;99.90;;;9.86;100.00;97671.66;4992240;28;20049;-37
2023/04/18 08:40:02;;;;;;;15.20;10.80;;;10.70;99.90;;;10.00;100.00;97670.41;5000102;28;20038;-37
2023/04/18 08:42:28;;;;;;;18.88;11.68;;;10.70;99.90;;;10.21;100.00;97674.13;4998763;28;20022;-37
2023/04/18 08:44:54;;;;;;;16.63;10.90;;;10.80;99.90;;;10.14;100.00;97678.75;4999056;28;20061;-37
2023/04/18 08:47:20;;;;;;;18.00;11.90;;;11.00;99.90;;;10.25;100.00;97671.38;5000759;28;20037;-36
2023/04/18 08:49:46;;;;;;;20.63;13.38;;;11.10;99.90;;;10.52;100.00;97678.50;5000678;28;20026;-36
2023/04/18 08:52:13;;;;;;;18.25;12.02;;;11.30;99.90;;;10.56;100.00;97635.28;4999162;28;20046;-35
2023/04/18 08:54:45;;;;;;;15.68;10.95;;;11.50;99.90;;;10.94;100.00;97672.69;4994855;28;20045;-35
2023/04/18 08:57:17;;;;;;;17.02;11.32;;;11.70;99.90;;;11.28;100.00;97653.91;4999421;28;20517;-36
2023/04/18 08:59:44;;;;;;;16.20;10.80;;;12.10;99.90;;;11.63;100.00;97672.91;5057166;23;20209;-37
2023/04/18 09:02:14;;;;;;;16.13;10.70;;;12.50;99.90;;;11.93;100.00;97678.81;5053169;28;20800;-36
2023/04/18 09:04:44;;;;;;;16.50;11.30;;;12.70;99.90;;;12.09;100.00;97680.91;5030505;28;20029;-36
2023/04/18 09:07:15;;;;;;;16.50;10.73;;;12.90;99.90;;;12.19;98.96;97685.78;5054987;28;20388;-37
2023/04/18 09:09:53;;;;;;;17.90;11.65;;;13.00;99.90;;;11.90;100.00;97678.97;5054451;28;20032;-36
2023/04/18 09:12:25;;;;;;;14.43;10.80;;;12.90;99.90;;;11.72;100.00;97688.41;5056444;28;20059;-37
2023/04/18 09:14:56;;;;;;;16.10;11.65;;;12.80;99.90;;;11.29;100.00;97682.03;5051360;28;20033;-37
2023/04/18 09:17:42;;;;;;;17.45;11.52;;;12.50;99.90;;;11.48;100.00;97681.38;5056711;28;20062;-36
2023/04/18 09:20:09;;;;;;;17.75;11.30;;;12.40;99.90;;;11.46;100.00;97692.00;5049568;28;20148;-36
2023/04/18 09:22:51;;;;;;;17.08;11.38;;;12.30;99.90;;;11.37;100.00;97681.75;5052642;28;20029;-36
2023/04/18 09:25:34;;;;;;;16.60;11.25;;;12.20;99.90;;;11.11;100.00;97687.94;5053942;28;20074;-36
2023/04/18 09:28:04;;;;;;;;;;;12.00;99.90;;;11.12;100.00;97685.25;5056129;28;20055;-37
2023/04/18 09:30:36;;;;;;;16.30;11.52;;;11.90;99.90;;;10.87;100.00;97696.66;5055961;28;19936;-36
2023/04/18 09:33:06;;;;;;;19.73;11.50;;;11.70;99.90;;;10.78;100.00;97690.81;5049105;28;20043;-36
2023/04/18 09:35:32;;;;;;;15.57;11.40;;;11.60;99.90;;;10.86;100.00;97699.34;5052120;28;20685;-36
2023/04/18 09:37:58;;;;;;;18.52;11.57;;;11.50;99.90;;;10.75;100.00;97690.91;5055159;28;20052;-37
2023/04/18 09:40:24;;;;;;;16.75;11.32;;;11.50;99.90;;;10.69;100.00;97689.34;5053960;28;20493;-37
2023/04/18 09:42:54;;;;;;;17.75;12.23;;;11.50;99.90;;;10.85;100.00;97698.47;5052441;28;20029;-37
2023/04/18 09:45:21;;;;;;;15.68;11.15;;;11.60;99.90;;;11.09;100.00;97688.03;5036516;28;20039;-37
2023/04/18 09:47:47;;;;;;;15.48;11.27;;;11.80;99.90;;;11.13;100.00;97691.41;5055048;28;20036;-36
2023/04/18 09:50:15;;;;;;;15.48;11.10;;;11.80;99.90;;;11.29;100.00;97684.69;5055267;28;20040;-37
2023/04/18 09:52:43;;;;;;;17.17;11.55;;;12.00;99.90;;;11.42;100.00;97685.97;5054823;28;20483;-37
2023/04/18 09:55:15;;;;;;;15.90;11.40;;;12.20;99.90;;;11.53;100.00;97688.22;5051556;28;20039;-37
2023/04/18 09:57:46;;;;;;;;;;;12.30;99.90;;;11.78;100.00;97690.81;5051512;28;20266;-37
2023/04/18 10:00:25;;;;;;;16.38;11.27;;;12.50;99.90;;;11.70;100.00;97684.97;5055901;28;19987;-37
2023/04/18 10:03:09;;;;;;;18.10;11.00;;;12.60;99.90;;;11.76;100.00;97691.81;5054871;28;20039;-37
2023/04/18 10:05:39;;;;;;;14.43;10.77;;;12.70;99.90;;;12.18;96.17;97685.81;5051646;28;20031;-37
2023/04/18 10:08:05;;;;;;;15.25;10.73;;;12.90;99.90;;;12.34;95.27;97691.38;5054022;28;20038;-37